createdAt,value
2023-01-08T00:00:05.278Z,7.30
2023-01-08T00:00:15.309Z,6.90
2023-01-08T00:00:25.421Z,7.20
2023-01-08T00:00:35.581Z,6.70
2023-01-08T00:00:45.630Z,5.80
2023-01-08T00:00:55.690Z,5.70
2023-01-08T00:01:05.768Z,5.20
2023-01-08T00:01:15.811Z,5.80
2023-01-08T00:01:25.840Z,5.70
2023-01-08T00:01:35.875Z,5.80
2023-01-08T00:01:45.913Z,6.30
2023-01-08T00:01:55.949Z,6.60
2023-01-08T00:02:05.973Z,6.70
2023-01-08T00:02:15.970Z,6.60
2023-01-08T00:02:25.971Z,7.10
2023-01-08T00:02:36.094Z,6.10
2023-01-08T00:02:46.012Z,5.90
2023-01-08T00:02:56.141Z,5.50
2023-01-08T00:03:06.317Z,5.70
2023-01-08T00:03:16.375Z,5.30
2023-01-08T00:03:26.348Z,5.40
2023-01-08T00:03:36.478Z,6.60
2023-01-08T00:03:46.454Z,6.70
2023-01-08T00:03:56.570Z,6.40
2023-01-08T00:04:06.631Z,6.40
2023-01-08T00:04:16.703Z,7.20
2023-01-08T00:04:26.738Z,7.10
2023-01-08T00:04:36.753Z,6.20
2023-01-08T00:04:46.769Z,5.40
2023-01-08T00:04:56.809Z,5.90
2023-01-08T00:05:06.820Z,5.80
2023-01-08T00:05:16.829Z,6.00
2023-01-08T00:05:26.839Z,5.10
2023-01-08T00:05:36.828Z,4.90
2023-01-08T00:05:46.828Z,4.80
2023-01-08T00:05:56.830Z,5.20
2023-01-08T00:06:06.842Z,5.30
2023-01-08T00:06:16.856Z,6.50
2023-01-08T00:06:26.843Z,6.30
2023-01-08T00:06:36.859Z,6.80
2023-01-08T00:06:46.858Z,6.70
2023-01-08T00:06:56.857Z,7.30
2023-01-08T00:07:06.887Z,6.80
2023-01-08T00:07:16.889Z,7.00
2023-01-08T00:07:26.894Z,6.80
2023-01-08T00:07:36.880Z,6.90
2023-01-08T00:07:46.879Z,6.00
2023-01-08T00:07:56.883Z,6.10
2023-01-08T00:08:06.898Z,6.10
2023-01-08T00:08:16.901Z,6.90
2023-01-08T00:08:26.899Z,5.80
2023-01-08T00:08:36.879Z,10.20
2023-01-08T00:08:46.904Z,9.20
2023-01-08T00:08:56.962Z,9.60
2023-01-08T00:09:06.952Z,6.00
2023-01-08T00:09:16.988Z,6.50
2023-01-08T00:09:27.031Z,6.90
2023-01-08T00:09:37.050Z,6.50
2023-01-08T00:09:47.169Z,6.50
2023-01-08T00:09:57.198Z,6.60
2023-01-08T00:10:07.251Z,6.30
2023-01-08T00:10:17.287Z,5.70
2023-01-08T00:10:27.416Z,5.70
2023-01-08T00:10:37.481Z,5.70
2023-01-08T00:10:47.531Z,6.70
2023-01-08T00:10:57.568Z,7.80
2023-01-08T00:11:07.620Z,8.50
2023-01-08T00:11:17.672Z,7.50
2023-01-08T00:11:27.709Z,5.80
2023-01-08T00:11:37.772Z,5.10
2023-01-08T00:11:47.801Z,5.10
2023-01-08T00:11:57.858Z,5.60
2023-01-08T00:12:07.880Z,5.20
2023-01-08T00:12:17.912Z,5.20
2023-01-08T00:12:27.947Z,5.10
2023-01-08T00:12:38.032Z,5.40
2023-01-08T00:12:48.109Z,5.70
2023-01-08T00:12:58.206Z,5.80
2023-01-08T00:13:08.248Z,5.20
2023-01-08T00:13:18.279Z,5.40
2023-01-08T00:13:28.390Z,5.60
2023-01-08T00:13:38.319Z,5.70
2023-01-08T00:13:48.353Z,5.90
2023-01-08T00:13:58.420Z,7.10
2023-01-08T00:14:08.458Z,7.80
2023-01-08T00:14:18.564Z,8.20
2023-01-08T00:14:28.604Z,7.40
2023-01-08T00:14:38.646Z,6.70
2023-01-08T00:14:48.693Z,8.00
2023-01-08T00:14:58.746Z,7.20
2023-01-08T00:15:08.778Z,8.70
2023-01-08T00:15:18.820Z,7.50
2023-01-08T00:15:28.851Z,8.20
2023-01-08T00:15:38.903Z,7.10
2023-01-08T00:15:48.963Z,7.50
2023-01-08T00:15:59.030Z,7.00
2023-01-08T00:16:09.168Z,7.00
2023-01-08T00:16:19.241Z,7.30
2023-01-08T00:16:29.385Z,7.30
2023-01-08T00:16:39.510Z,7.80
2023-01-08T00:16:49.476Z,6.70
2023-01-08T00:16:59.640Z,7.40
2023-01-08T00:17:09.575Z,6.60
2023-01-08T00:17:19.617Z,6.30
2023-01-08T00:17:29.700Z,5.70
2023-01-08T00:17:39.728Z,6.40
2023-01-08T00:17:49.768Z,6.80
2023-01-08T00:17:59.814Z,6.60
2023-01-08T00:18:09.852Z,6.20
2023-01-08T00:18:19.900Z,5.80
2023-01-08T00:18:29.948Z,6.10
2023-01-08T00:18:39.988Z,5.60
2023-01-08T00:18:50.027Z,5.90
2023-01-08T00:19:00.092Z,6.30
2023-01-08T00:19:10.137Z,7.30
2023-01-08T00:19:20.205Z,7.80
2023-01-08T00:19:30.217Z,7.70
2023-01-08T00:19:40.267Z,7.20
2023-01-08T00:19:50.305Z,6.80
2023-01-08T00:20:00.409Z,6.70
2023-01-08T00:20:10.452Z,6.90
2023-01-08T00:20:20.484Z,6.80
2023-01-08T00:20:30.551Z,6.90
2023-01-08T00:20:40.600Z,6.70
2023-01-08T00:20:50.623Z,6.10
2023-01-08T00:21:00.682Z,6.20
2023-01-08T00:21:10.713Z,6.60
2023-01-08T00:21:20.751Z,7.20
2023-01-08T00:21:30.788Z,7.20
2023-01-08T00:21:40.827Z,7.50
2023-01-08T00:21:50.853Z,6.90
2023-01-08T00:22:00.885Z,6.40
2023-01-08T00:22:10.967Z,5.40
2023-01-08T00:22:21.000Z,5.60
2023-01-08T00:22:31.047Z,5.60
2023-01-08T00:22:41.077Z,5.70
2023-01-08T00:22:51.226Z,5.60
2023-01-08T00:23:01.249Z,5.80
2023-01-08T00:23:11.328Z,6.50
2023-01-08T00:23:21.357Z,6.40
2023-01-08T00:23:31.453Z,6.20
2023-01-08T00:23:41.545Z,5.90
2023-01-08T00:23:51.589Z,6.40
2023-01-08T00:24:01.635Z,7.00
2023-01-08T00:24:11.669Z,6.50
2023-01-08T00:24:21.730Z,6.00
2023-01-08T00:24:31.768Z,5.60
2023-01-08T00:24:41.808Z,5.60
2023-01-08T00:24:51.847Z,5.80
2023-01-08T00:25:01.884Z,5.80
2023-01-08T00:25:11.928Z,6.30
2023-01-08T00:25:21.963Z,5.90
2023-01-08T00:25:32.016Z,6.10
2023-01-08T00:25:42.083Z,5.60
2023-01-08T00:25:52.139Z,5.50
2023-01-08T00:26:02.254Z,5.80
2023-01-08T00:26:12.265Z,5.90
2023-01-08T00:26:22.289Z,5.90
2023-01-08T00:26:32.357Z,6.00
2023-01-08T00:26:42.398Z,6.40
2023-01-08T00:26:52.476Z,7.80
2023-01-08T00:27:02.530Z,7.50
2023-01-08T00:27:12.576Z,7.00
2023-01-08T00:27:22.617Z,5.60
2023-01-08T00:27:32.660Z,5.80
2023-01-08T00:27:42.707Z,5.70
2023-01-08T00:27:52.747Z,5.80
2023-01-08T00:28:02.777Z,6.20
2023-01-08T00:28:12.809Z,6.60
2023-01-08T00:28:22.849Z,6.90
2023-01-08T00:28:32.881Z,8.40
2023-01-08T00:28:42.911Z,9.80
2023-01-08T00:28:52.960Z,9.30
2023-01-08T00:29:02.989Z,7.30
2023-01-08T00:29:13.037Z,5.50
2023-01-08T00:29:23.083Z,6.30
2023-01-08T00:29:33.147Z,6.60
2023-01-08T00:29:43.223Z,6.60
2023-01-08T00:29:53.265Z,5.80
2023-01-08T00:30:03.301Z,5.60
2023-01-08T00:30:13.336Z,6.10
2023-01-08T00:30:23.367Z,6.30
2023-01-08T00:30:33.461Z,6.30
2023-01-08T00:30:43.533Z,5.60
2023-01-08T00:30:53.600Z,5.90
2023-01-08T00:31:04.014Z,6.00
2023-01-08T00:31:13.691Z,6.00
2023-01-08T00:31:23.898Z,6.50
2023-01-08T00:31:33.785Z,6.70
2023-01-08T00:31:43.923Z,7.60
2023-01-08T00:31:53.896Z,8.80
2023-01-08T00:32:03.946Z,9.40
2023-01-08T00:32:13.991Z,8.50
2023-01-08T00:32:24.018Z,6.50
2023-01-08T00:32:34.092Z,5.40
2023-01-08T00:32:44.178Z,5.60
2023-01-08T00:32:54.217Z,6.00
2023-01-08T00:33:04.265Z,6.10
2023-01-08T00:33:14.288Z,5.70
2023-01-08T00:33:24.309Z,6.00
2023-01-08T00:33:34.355Z,7.20
2023-01-08T00:33:44.396Z,7.40
2023-01-08T00:33:54.424Z,7.40
2023-01-08T00:34:04.454Z,6.10
2023-01-08T00:34:14.494Z,6.20
2023-01-08T00:34:24.530Z,6.70
2023-01-08T00:34:34.558Z,7.00
2023-01-08T00:34:44.611Z,6.70
2023-01-08T00:34:54.648Z,5.80
2023-01-08T00:35:04.665Z,6.20
2023-01-08T00:35:14.685Z,6.00
2023-01-08T00:35:24.719Z,8.40
2023-01-08T00:35:34.776Z,7.90
2023-01-08T00:35:44.810Z,7.80
2023-01-08T00:35:54.836Z,6.40
2023-01-08T00:36:04.925Z,6.30
2023-01-08T00:36:14.974Z,6.50
2023-01-08T00:36:25.015Z,5.50
2023-01-08T00:36:35.038Z,5.30
2023-01-08T00:36:45.089Z,6.00
2023-01-08T00:36:55.107Z,6.50
2023-01-08T00:37:05.157Z,7.00
2023-01-08T00:37:15.186Z,7.20
2023-01-08T00:37:25.216Z,6.90
2023-01-08T00:37:35.267Z,6.40
2023-01-08T00:37:45.304Z,6.00
2023-01-08T00:37:55.336Z,6.80
2023-01-08T00:38:05.387Z,7.80
2023-01-08T00:38:15.407Z,8.10
2023-01-08T00:38:25.464Z,8.60
2023-01-08T00:38:35.524Z,7.50
2023-01-08T00:38:45.566Z,7.60
2023-01-08T00:38:55.589Z,6.20
2023-01-08T00:39:05.656Z,6.30
2023-01-08T00:39:15.690Z,6.10
2023-01-08T00:39:25.716Z,6.00
2023-01-08T00:39:35.798Z,6.40
2023-01-08T00:39:45.828Z,6.10
2023-01-08T00:39:55.867Z,6.60
2023-01-08T00:40:05.962Z,6.90
2023-01-08T00:40:16.003Z,7.20
2023-01-08T00:40:26.032Z,6.70
2023-01-08T00:40:36.147Z,6.20
2023-01-08T00:40:46.176Z,5.80
2023-01-08T00:40:56.215Z,6.00
2023-01-08T00:41:06.248Z,6.00
2023-01-08T00:41:16.290Z,6.10
2023-01-08T00:41:26.325Z,6.40
2023-01-08T00:41:36.393Z,7.00
2023-01-08T00:41:46.416Z,7.40
2023-01-08T00:41:56.471Z,7.20
2023-01-08T00:42:06.544Z,6.50
2023-01-08T00:42:16.586Z,6.20
2023-01-08T00:42:26.613Z,5.90
2023-01-08T00:42:36.656Z,5.60
2023-01-08T00:42:46.694Z,5.90
2023-01-08T00:42:56.726Z,6.40
2023-01-08T00:43:06.765Z,7.20
2023-01-08T00:43:16.810Z,6.80
2023-01-08T00:43:26.895Z,6.70
2023-01-08T00:43:36.915Z,6.20
2023-01-08T00:43:46.954Z,6.40
2023-01-08T00:43:56.975Z,5.90
2023-01-08T00:44:07.026Z,6.40
2023-01-08T00:44:17.047Z,6.40
2023-01-08T00:44:27.086Z,6.50
2023-01-08T00:44:37.114Z,5.90
2023-01-08T00:44:47.147Z,5.20
2023-01-08T00:44:57.186Z,5.20
2023-01-08T00:45:07.205Z,5.80
2023-01-08T00:45:17.236Z,6.30
2023-01-08T00:45:27.268Z,6.40
2023-01-08T00:45:37.360Z,5.60
2023-01-08T00:45:47.418Z,5.70
2023-01-08T00:45:57.492Z,6.00
2023-01-08T00:46:07.577Z,6.60
2023-01-08T00:46:17.699Z,6.60
2023-01-08T00:46:27.758Z,7.00
2023-01-08T00:46:37.787Z,6.40
2023-01-08T00:46:47.826Z,6.40
2023-01-08T00:46:57.915Z,6.10
2023-01-08T00:47:07.953Z,6.50
2023-01-08T00:47:18.013Z,6.10
2023-01-08T00:47:28.062Z,5.60
2023-01-08T00:47:38.089Z,5.40
2023-01-08T00:47:48.117Z,6.30
2023-01-08T00:47:58.184Z,7.00
2023-01-08T00:48:08.218Z,6.70
2023-01-08T00:48:18.245Z,5.40
2023-01-08T00:48:28.319Z,5.20
2023-01-08T00:48:38.334Z,5.50
2023-01-08T00:48:48.354Z,5.80
2023-01-08T00:48:58.385Z,6.50
2023-01-08T00:49:08.423Z,5.60
2023-01-08T00:49:18.465Z,5.60
2023-01-08T00:49:28.497Z,5.90
2023-01-08T00:49:38.606Z,6.10
2023-01-08T00:49:48.633Z,6.80
2023-01-08T00:49:58.675Z,6.00
2023-01-08T00:50:08.719Z,6.30
2023-01-08T00:50:18.754Z,6.30
2023-01-08T00:50:28.807Z,6.20
2023-01-08T00:50:38.853Z,6.40
2023-01-08T00:50:48.887Z,6.50
2023-01-08T00:50:58.930Z,7.00
2023-01-08T00:51:08.953Z,8.10
2023-01-08T00:51:19.023Z,7.50
2023-01-08T00:51:29.106Z,7.60
2023-01-08T00:51:39.143Z,6.20
2023-01-08T00:51:49.186Z,6.30
2023-01-08T00:51:59.267Z,6.50
2023-01-08T00:52:09.337Z,7.00
2023-01-08T00:52:19.374Z,7.00
2023-01-08T00:52:29.418Z,6.30
2023-01-08T00:52:39.462Z,6.50
2023-01-08T00:52:49.530Z,6.50
2023-01-08T00:52:59.567Z,6.70
2023-01-08T00:53:09.605Z,7.50
2023-01-08T00:53:19.644Z,7.20
2023-01-08T00:53:29.682Z,7.80
2023-01-08T00:53:39.744Z,6.60
2023-01-08T00:53:49.781Z,6.70
2023-01-08T00:53:59.825Z,5.40
2023-01-08T00:54:09.872Z,5.30
2023-01-08T00:54:19.904Z,5.50
2023-01-08T00:54:29.934Z,6.30
2023-01-08T00:54:39.989Z,7.10
2023-01-08T00:54:50.017Z,7.00
2023-01-08T00:55:00.076Z,6.80
2023-01-08T00:55:10.120Z,6.30
2023-01-08T00:55:20.178Z,6.50
2023-01-08T00:55:30.224Z,6.10
2023-01-08T00:55:40.264Z,6.60
2023-01-08T00:55:50.357Z,6.80
2023-01-08T00:56:00.424Z,6.90
2023-01-08T00:56:10.454Z,7.40
2023-01-08T00:56:20.491Z,6.90
2023-01-08T00:56:30.564Z,6.70
2023-01-08T00:56:40.601Z,5.70
2023-01-08T00:56:50.701Z,6.00
2023-01-08T00:57:00.748Z,6.50
2023-01-08T00:57:10.766Z,6.90
2023-01-08T00:57:20.826Z,7.10
2023-01-08T00:57:30.852Z,6.80
2023-01-08T00:57:40.876Z,7.40
2023-01-08T00:57:50.902Z,7.10
2023-01-08T00:58:00.934Z,7.50
2023-01-08T00:58:10.982Z,6.50
2023-01-08T00:58:21.015Z,6.50
2023-01-08T00:58:31.072Z,6.70
2023-01-08T00:58:41.118Z,8.50
2023-01-08T00:58:51.197Z,8.70
2023-01-08T00:59:01.263Z,8.00
2023-01-08T00:59:11.312Z,7.00
2023-01-08T00:59:21.343Z,6.80
2023-01-08T00:59:31.388Z,6.50
2023-01-08T00:59:41.413Z,6.70
2023-01-08T00:59:51.441Z,6.90
2023-01-08T01:00:01.482Z,7.70
2023-01-08T01:00:11.520Z,6.70
2023-01-08T01:00:21.553Z,6.70
2023-01-08T01:00:31.582Z,7.10
2023-01-08T01:00:41.656Z,7.90
2023-01-08T01:00:51.712Z,7.70
2023-01-08T01:01:01.785Z,7.20
2023-01-08T01:01:12.079Z,6.40
2023-01-08T01:01:22.181Z,6.90
2023-01-08T01:01:32.257Z,6.50
2023-01-08T01:01:42.357Z,6.80
2023-01-08T01:01:52.422Z,6.50
2023-01-08T01:02:02.466Z,6.80
2023-01-08T01:02:12.468Z,7.40
2023-01-08T01:02:22.621Z,7.30
2023-01-08T01:02:32.703Z,8.20
2023-01-08T01:02:42.732Z,7.30
2023-01-08T01:02:52.797Z,6.90
2023-01-08T01:03:02.807Z,6.50
2023-01-08T01:03:12.845Z,6.70
2023-01-08T01:03:22.883Z,8.00
2023-01-08T01:03:32.936Z,7.00
2023-01-08T01:03:42.960Z,7.50
2023-01-08T01:03:53.042Z,7.20
2023-01-08T01:04:03.193Z,8.00
2023-01-08T01:04:13.298Z,6.80
2023-01-08T01:04:23.411Z,6.60
2023-01-08T01:04:33.539Z,6.20
2023-01-08T01:04:43.596Z,6.80
2023-01-08T01:04:53.625Z,6.80
2023-01-08T01:05:03.653Z,6.20
2023-01-08T01:05:13.736Z,5.80
2023-01-08T01:05:24.010Z,5.70
2023-01-08T01:05:33.819Z,6.00
2023-01-08T01:05:43.834Z,5.90
2023-01-08T01:05:53.885Z,5.90
2023-01-08T01:06:03.922Z,6.20
2023-01-08T01:06:14.013Z,6.50
2023-01-08T01:06:24.090Z,6.30
2023-01-08T01:06:34.157Z,7.00
2023-01-08T01:06:44.212Z,7.60
2023-01-08T01:06:54.240Z,8.40
2023-01-08T01:07:04.296Z,8.60
2023-01-08T01:07:14.333Z,7.80
2023-01-08T01:07:24.372Z,7.10
2023-01-08T01:07:34.515Z,6.10
2023-01-08T01:07:44.564Z,5.70
2023-01-08T01:07:54.604Z,6.20
2023-01-08T01:08:04.628Z,6.10
2023-01-08T01:08:14.722Z,6.30
2023-01-08T01:08:24.815Z,6.10
2023-01-08T01:08:34.938Z,6.30
2023-01-08T01:08:44.983Z,6.70
2023-01-08T01:08:55.033Z,6.50
2023-01-08T01:09:05.081Z,7.70
2023-01-08T01:09:15.143Z,8.10
2023-01-08T01:09:25.183Z,7.70
2023-01-08T01:09:35.216Z,10.10
2023-01-08T01:09:45.248Z,9.10
2023-01-08T01:09:55.378Z,10.10
2023-01-08T01:10:05.423Z,6.90
2023-01-08T01:10:15.444Z,8.60
2023-01-08T01:10:25.478Z,7.30
2023-01-08T01:10:35.520Z,7.20
2023-01-08T01:10:45.534Z,5.80
2023-01-08T01:10:55.571Z,7.20
2023-01-08T01:11:05.609Z,7.50
2023-01-08T01:11:15.642Z,7.40
2023-01-08T01:11:25.708Z,6.50
2023-01-08T01:11:35.724Z,6.30
2023-01-08T01:11:45.754Z,6.30
2023-01-08T01:11:55.895Z,6.80
2023-01-08T01:12:05.906Z,6.90
2023-01-08T01:12:15.950Z,7.10
2023-01-08T01:12:25.961Z,6.70
2023-01-08T01:12:35.992Z,6.60
2023-01-08T01:12:46.078Z,6.30
2023-01-08T01:12:56.111Z,7.10
2023-01-08T01:13:06.145Z,7.10
2023-01-08T01:13:16.191Z,7.70
2023-01-08T01:13:26.246Z,6.40
2023-01-08T01:13:36.283Z,7.20
2023-01-08T01:13:46.312Z,6.80
2023-01-08T01:13:56.371Z,7.10
2023-01-08T01:14:06.402Z,5.80
2023-01-08T01:14:16.450Z,6.80
2023-01-08T01:14:26.462Z,6.90
2023-01-08T01:14:36.501Z,7.30
2023-01-08T01:14:46.543Z,6.80
2023-01-08T01:14:56.590Z,6.70
2023-01-08T01:15:06.595Z,7.10
2023-01-08T01:15:16.621Z,6.20
2023-01-08T01:15:26.629Z,6.70
2023-01-08T01:15:36.680Z,6.20
2023-01-08T01:15:46.692Z,6.20
2023-01-08T01:15:56.702Z,6.00
2023-01-08T01:16:06.718Z,6.70
2023-01-08T01:16:16.792Z,7.00
2023-01-08T01:16:26.921Z,6.70
2023-01-08T01:16:36.987Z,6.50
2023-01-08T01:16:47.066Z,6.70
2023-01-08T01:16:57.127Z,6.90
2023-01-08T01:17:07.155Z,7.80
2023-01-08T01:17:17.161Z,8.30
2023-01-08T01:17:27.151Z,8.50
2023-01-08T01:17:37.241Z,7.30
2023-01-08T01:17:47.256Z,6.60
2023-01-08T01:17:57.261Z,6.90
2023-01-08T01:18:07.274Z,6.60
2023-01-08T01:18:17.309Z,7.30
2023-01-08T01:18:27.291Z,6.30
2023-01-08T01:18:37.320Z,6.80
2023-01-08T01:18:47.312Z,6.40
2023-01-08T01:18:57.312Z,7.90
2023-01-08T01:19:07.322Z,7.40
2023-01-08T01:19:17.360Z,7.30
2023-01-08T01:19:27.352Z,6.10
2023-01-08T01:19:37.377Z,5.70
2023-01-08T01:19:47.410Z,5.50
2023-01-08T01:19:57.430Z,5.70
2023-01-08T01:20:07.463Z,6.20
2023-01-08T01:20:17.494Z,6.60
2023-01-08T01:20:27.493Z,7.40
2023-01-08T01:20:37.489Z,7.10
2023-01-08T01:20:47.503Z,6.60
2023-01-08T01:20:57.502Z,6.10
2023-01-08T01:21:07.510Z,6.80
2023-01-08T01:21:17.503Z,7.30
2023-01-08T01:21:27.524Z,6.50
2023-01-08T01:21:37.522Z,6.50
2023-01-08T01:21:47.593Z,6.70
2023-01-08T01:21:57.600Z,7.60
2023-01-08T01:22:07.601Z,6.80
2023-01-08T01:22:17.591Z,6.40
2023-01-08T01:22:27.601Z,6.10
2023-01-08T01:22:37.627Z,6.20
2023-01-08T01:22:47.628Z,6.50
2023-01-08T01:22:57.639Z,6.50
2023-01-08T01:23:07.811Z,6.80
2023-01-08T01:23:17.865Z,7.10
2023-01-08T01:23:27.892Z,7.40
2023-01-08T01:23:37.887Z,7.10
2023-01-08T01:23:47.887Z,6.80
2023-01-08T01:23:57.943Z,7.20
2023-01-08T01:24:07.967Z,7.40
2023-01-08T01:24:18.055Z,7.20
2023-01-08T01:24:28.098Z,7.30
2023-01-08T01:24:38.185Z,7.30
2023-01-08T01:24:48.171Z,7.20
2023-01-08T01:24:58.331Z,6.60
2023-01-08T01:25:08.368Z,6.80
2023-01-08T01:25:18.406Z,7.10
2023-01-08T01:25:28.423Z,7.20
2023-01-08T01:25:38.422Z,7.90
2023-01-08T01:25:48.438Z,7.60
2023-01-08T01:25:58.430Z,8.70
2023-01-08T01:26:08.440Z,8.90
2023-01-08T01:26:18.469Z,11.40
2023-01-08T01:26:28.480Z,11.80
2023-01-08T01:26:38.539Z,12.50
2023-01-08T01:26:48.552Z,11.90
2023-01-08T01:26:58.565Z,11.20
2023-01-08T01:27:08.609Z,9.80
2023-01-08T01:27:18.620Z,9.80
2023-01-08T01:27:28.610Z,9.70
2023-01-08T01:27:38.619Z,9.30
2023-01-08T01:27:48.649Z,9.20
2023-01-08T01:27:58.640Z,9.00
2023-01-08T01:28:08.643Z,9.30
2023-01-08T01:28:18.662Z,8.40
2023-01-08T01:28:28.650Z,7.60
2023-01-08T01:28:38.660Z,7.70
2023-01-08T01:28:48.671Z,7.70
2023-01-08T01:28:58.709Z,8.90
2023-01-08T01:29:08.760Z,9.10
2023-01-08T01:29:18.766Z,11.00
2023-01-08T01:29:28.786Z,10.90
2023-01-08T01:29:38.820Z,11.60
2023-01-08T01:29:48.832Z,10.70
2023-01-08T01:29:58.848Z,10.90
2023-01-08T01:30:08.858Z,10.40
2023-01-08T01:30:18.900Z,9.50
2023-01-08T01:30:28.906Z,9.40
2023-01-08T01:30:38.957Z,9.00
2023-01-08T01:30:48.960Z,8.90
2023-01-08T01:30:59.037Z,8.30
2023-01-08T01:31:09.120Z,8.60
2023-01-08T01:31:19.207Z,9.00
2023-01-08T01:31:29.208Z,8.90
2023-01-08T01:31:39.380Z,7.90
2023-01-08T01:31:49.372Z,6.90
2023-01-08T01:31:59.391Z,6.40
2023-01-08T01:32:09.379Z,7.80
2023-01-08T01:32:19.388Z,8.20
2023-01-08T01:32:29.429Z,8.50
2023-01-08T01:32:39.434Z,7.60
2023-01-08T01:32:49.460Z,7.30
2023-01-08T01:32:59.471Z,7.30
2023-01-08T01:33:09.492Z,7.00
2023-01-08T01:33:19.481Z,6.90
2023-01-08T01:33:29.549Z,6.80
2023-01-08T01:33:39.540Z,7.60
2023-01-08T01:33:49.547Z,9.00
2023-01-08T01:33:59.571Z,13.00
2023-01-08T01:34:09.604Z,12.10
2023-01-08T01:34:19.620Z,10.90
2023-01-08T01:34:29.627Z,7.50
2023-01-08T01:34:39.639Z,7.40
2023-01-08T01:34:49.636Z,7.20
2023-01-08T01:34:59.668Z,6.50
2023-01-08T01:35:09.659Z,7.20
2023-01-08T01:35:19.759Z,7.40
2023-01-08T01:35:29.761Z,8.30
2023-01-08T01:35:39.810Z,7.40
2023-01-08T01:35:49.829Z,7.60
2023-01-08T01:35:59.868Z,6.90
2023-01-08T01:36:09.882Z,7.70
2023-01-08T01:36:19.920Z,6.80
2023-01-08T01:36:29.923Z,7.60
2023-01-08T01:36:39.927Z,7.30
2023-01-08T01:36:49.935Z,7.60
2023-01-08T01:36:59.977Z,7.10
2023-01-08T01:37:10.009Z,7.10
2023-01-08T01:37:20.066Z,8.30
2023-01-08T01:37:30.089Z,8.00
2023-01-08T01:37:40.129Z,7.70
2023-01-08T01:37:50.177Z,6.30
2023-01-08T01:38:00.197Z,6.90
2023-01-08T01:38:10.249Z,7.10
2023-01-08T01:38:20.279Z,7.60
2023-01-08T01:38:30.328Z,7.10
2023-01-08T01:38:40.368Z,6.40
2023-01-08T01:38:50.466Z,6.10
2023-01-08T01:39:00.519Z,6.00
2023-01-08T01:39:10.583Z,7.10
2023-01-08T01:39:20.612Z,7.80
2023-01-08T01:39:30.650Z,8.00
2023-01-08T01:39:40.688Z,8.20
2023-01-08T01:39:50.771Z,8.40
2023-01-08T01:40:00.860Z,7.80
2023-01-08T01:40:10.968Z,7.10
2023-01-08T01:40:21.036Z,6.80
2023-01-08T01:40:31.086Z,6.90
2023-01-08T01:40:41.110Z,6.70
2023-01-08T01:40:51.207Z,6.60
2023-01-08T01:41:01.247Z,6.90
2023-01-08T01:41:11.348Z,7.40
2023-01-08T01:41:21.379Z,7.10
2023-01-08T01:41:31.450Z,7.20
2023-01-08T01:41:41.508Z,7.20
2023-01-08T01:41:51.548Z,7.80
2023-01-08T01:42:01.591Z,7.80
2023-01-08T01:42:11.627Z,7.40
2023-01-08T01:42:21.678Z,6.70
2023-01-08T01:42:31.759Z,7.40
2023-01-08T01:42:41.820Z,7.40
2023-01-08T01:42:51.846Z,7.70
2023-01-08T01:43:01.876Z,8.30
2023-01-08T01:43:11.909Z,9.00
2023-01-08T01:43:21.959Z,8.30
2023-01-08T01:43:32.012Z,7.00
2023-01-08T01:43:42.065Z,6.90
2023-01-08T01:43:52.165Z,7.00
2023-01-08T01:44:02.229Z,6.50
2023-01-08T01:44:12.267Z,6.60
2023-01-08T01:44:22.345Z,6.90
2023-01-08T01:44:32.398Z,7.70
2023-01-08T01:44:42.450Z,7.40
2023-01-08T01:44:52.527Z,7.40
2023-01-08T01:45:02.545Z,7.70
2023-01-08T01:45:12.569Z,9.30
2023-01-08T01:45:22.619Z,8.90
2023-01-08T01:45:32.708Z,9.40
2023-01-08T01:45:42.796Z,8.50
2023-01-08T01:45:52.821Z,9.60
2023-01-08T01:46:03.006Z,8.20
2023-01-08T01:46:12.946Z,8.50
2023-01-08T01:46:22.987Z,8.70
2023-01-08T01:46:33.039Z,8.50
2023-01-08T01:46:43.087Z,7.90
2023-01-08T01:46:53.136Z,6.50
2023-01-08T01:47:03.194Z,6.70
2023-01-08T01:47:13.206Z,6.70
2023-01-08T01:47:23.368Z,6.70
2023-01-08T01:47:33.397Z,6.70
2023-01-08T01:47:43.438Z,6.70
2023-01-08T01:47:53.468Z,7.10
2023-01-08T01:48:03.518Z,7.00
2023-01-08T01:48:13.538Z,8.10
2023-01-08T01:48:23.599Z,7.70
2023-01-08T01:48:33.757Z,7.90
2023-01-08T01:48:43.787Z,7.10
2023-01-08T01:48:53.819Z,7.20
2023-01-08T01:49:03.882Z,7.00
2023-01-08T01:49:13.907Z,7.40
2023-01-08T01:49:23.937Z,7.60
2023-01-08T01:49:33.976Z,7.40
2023-01-08T01:49:44.047Z,7.10
2023-01-08T01:49:54.094Z,7.00
2023-01-08T01:50:04.124Z,6.70
2023-01-08T01:50:14.166Z,7.10
2023-01-08T01:50:24.215Z,6.90
2023-01-08T01:50:34.281Z,7.50
2023-01-08T01:50:44.314Z,7.60
2023-01-08T01:50:54.350Z,6.90
2023-01-08T01:51:04.387Z,7.40
2023-01-08T01:51:14.425Z,7.60
2023-01-08T01:51:24.495Z,8.80
2023-01-08T01:51:34.529Z,8.40
2023-01-08T01:51:44.565Z,8.00
2023-01-08T01:51:54.588Z,7.70
2023-01-08T01:52:04.660Z,7.90
2023-01-08T01:52:14.673Z,8.60
2023-01-08T01:52:24.716Z,8.40
2023-01-08T01:52:34.746Z,8.30
2023-01-08T01:52:44.847Z,8.90
2023-01-08T01:52:54.875Z,8.30
2023-01-08T01:53:04.911Z,7.80
2023-01-08T01:53:14.991Z,6.50
2023-01-08T01:53:25.029Z,6.60
2023-01-08T01:53:35.179Z,6.60
2023-01-08T01:53:45.227Z,6.70
2023-01-08T01:53:55.278Z,7.50
2023-01-08T01:54:05.324Z,8.40
2023-01-08T01:54:15.411Z,8.20
2023-01-08T01:54:25.444Z,7.60
2023-01-08T01:54:35.502Z,6.80
2023-01-08T01:54:45.573Z,6.90
2023-01-08T01:54:55.601Z,6.60
2023-01-08T01:55:05.634Z,6.90
2023-01-08T01:55:15.666Z,7.00
2023-01-08T01:55:25.709Z,7.30
2023-01-08T01:55:35.727Z,7.10
2023-01-08T01:55:45.766Z,7.20
2023-01-08T01:55:55.806Z,7.50
2023-01-08T01:56:05.826Z,8.20
2023-01-08T01:56:15.865Z,8.50
2023-01-08T01:56:25.992Z,7.70
2023-01-08T01:56:36.014Z,7.80
2023-01-08T01:56:46.052Z,7.60
2023-01-08T01:56:56.079Z,7.70
2023-01-08T01:57:06.106Z,7.40
2023-01-08T01:57:16.137Z,9.50
2023-01-08T01:57:26.196Z,10.10
2023-01-08T01:57:36.272Z,9.50
2023-01-08T01:57:46.325Z,7.40
2023-01-08T01:57:56.385Z,6.90
2023-01-08T01:58:06.434Z,7.70
2023-01-08T01:58:16.466Z,8.30
2023-01-08T01:58:26.500Z,8.20
2023-01-08T01:58:36.527Z,8.10
2023-01-08T01:58:46.557Z,8.50
2023-01-08T01:58:56.597Z,8.00
2023-01-08T01:59:06.626Z,8.00
2023-01-08T01:59:16.703Z,6.90
2023-01-08T01:59:26.735Z,7.60
2023-01-08T01:59:36.819Z,6.80
2023-01-08T01:59:46.855Z,7.60
2023-01-08T01:59:56.896Z,7.60
2023-01-08T02:00:06.949Z,8.00
2023-01-08T02:00:16.984Z,7.50
2023-01-08T02:00:27.015Z,7.10
2023-01-08T02:00:37.066Z,7.30
2023-01-08T02:00:47.094Z,7.10
2023-01-08T02:00:57.205Z,7.30
2023-01-08T02:01:07.321Z,7.60
2023-01-08T02:01:17.373Z,8.20
2023-01-08T02:01:27.429Z,7.80
2023-01-08T02:01:37.433Z,7.20
2023-01-08T02:01:47.487Z,7.60
2023-01-08T02:01:57.512Z,8.10
2023-01-08T02:02:07.559Z,8.50
2023-01-08T02:02:17.628Z,7.80
2023-01-08T02:02:27.590Z,7.60
2023-01-08T02:02:37.670Z,7.50
2023-01-08T02:02:47.720Z,7.60
2023-01-08T02:02:57.774Z,8.00
2023-01-08T02:03:07.897Z,7.60
2023-01-08T02:03:17.998Z,7.50
2023-01-08T02:03:28.075Z,7.70
2023-01-08T02:03:38.208Z,8.10
2023-01-08T02:03:48.296Z,7.90
2023-01-08T02:03:58.361Z,8.20
2023-01-08T02:04:08.456Z,7.70
2023-01-08T02:04:18.561Z,7.90
2023-01-08T02:04:28.699Z,7.30
2023-01-08T02:04:38.746Z,9.80
2023-01-08T02:04:48.795Z,12.20
2023-01-08T02:04:58.825Z,12.10
2023-01-08T02:05:08.891Z,10.50
2023-01-08T02:05:18.905Z,8.30
2023-01-08T02:05:28.935Z,8.10
2023-01-08T02:05:38.975Z,7.40
2023-01-08T02:05:48.995Z,7.00
2023-01-08T02:05:59.035Z,7.50
2023-01-08T02:06:09.075Z,7.30
2023-01-08T02:06:19.137Z,7.40
2023-01-08T02:06:29.187Z,7.80
2023-01-08T02:06:39.224Z,8.30
2023-01-08T02:06:49.307Z,8.50
2023-01-08T02:06:59.334Z,8.10
2023-01-08T02:07:09.376Z,7.70
2023-01-08T02:07:19.419Z,7.70
2023-01-08T02:07:29.485Z,7.30
2023-01-08T02:07:39.515Z,7.00
2023-01-08T02:07:49.547Z,7.00
2023-01-08T02:07:59.564Z,8.30
2023-01-08T02:08:09.595Z,8.70
2023-01-08T02:08:19.623Z,8.50
2023-01-08T02:08:29.663Z,7.10
2023-01-08T02:08:39.680Z,7.00
2023-01-08T02:08:49.799Z,7.80
2023-01-08T02:08:59.834Z,9.00
2023-01-08T02:09:09.866Z,8.90
2023-01-08T02:09:19.952Z,8.30
2023-01-08T02:09:29.983Z,7.30
2023-01-08T02:09:40.025Z,7.70
2023-01-08T02:09:50.064Z,6.90
2023-01-08T02:10:00.166Z,6.90
2023-01-08T02:10:10.209Z,6.90
2023-01-08T02:10:20.244Z,8.60
2023-01-08T02:10:30.283Z,8.80
2023-01-08T02:10:40.327Z,9.10
2023-01-08T02:10:50.374Z,7.50
2023-01-08T02:11:00.412Z,7.80
2023-01-08T02:11:10.509Z,7.50
2023-01-08T02:11:20.605Z,7.30
2023-01-08T02:11:30.647Z,6.50
2023-01-08T02:11:40.683Z,6.50
2023-01-08T02:11:50.832Z,7.00
2023-01-08T02:12:00.879Z,7.40
2023-01-08T02:12:10.922Z,7.40
2023-01-08T02:12:20.974Z,7.50
2023-01-08T02:12:31.051Z,8.00
2023-01-08T02:12:41.084Z,8.00
2023-01-08T02:12:51.105Z,7.50
2023-01-08T02:13:01.136Z,8.00
2023-01-08T02:13:11.184Z,7.90
2023-01-08T02:13:21.225Z,8.10
2023-01-08T02:13:31.305Z,8.00